Time;durP1;ratioP1;P1;durP2;ratioP2;P2;SDS_P1;SDS_P2;PMS_P1;PMS_P2;Temp;Humidity;BMP_temperature;BMP_pressure;BME280_temperature;BME280_humidity;BME280_pressure;Samples;Min_cycle;Max_cycle;Signal;HPM_P1;HPM_P2
2024/02/28 00:01:23;;;;;;;9.43;4.07;;;;;;;-2.29;100.00;100495.03;4979369;28;20092;-68
2024/02/28 00:03:50;;;;;;;9.97;4.43;;;;;;;-2.28;100.00;100499.34;4962419;28;20057;-68
2024/02/28 00:06:18;;;;;;;10.37;4.30;;;;;;;-2.30;100.00;100484.69;4947569;28;20057;-68
2024/02/28 00:08:44;;;;;;;9.70;4.30;;;;;;;-2.35;100.00;100491.81;4995287;28;20063;-68
2024/02/28 00:11:10;;;;;;;10.50;4.53;;;;;;;-2.36;100.00;100484.94;4998278;28;20491;-68
2024/02/28 00:13:36;;;;;;;7.20;4.10;;;;;;;-2.29;100.00;100495.03;5020170;28;20139;-68
2024/02/28 00:16:03;;;;;;;7.53;4.30;;;;;;;-2.27;100.00;100490.63;5036023;28;20483;-69
2024/02/28 00:18:31;;;;;;;7.90;4.03;;;;;;;-2.27;100.00;100489.78;5035106;28;20055;-68
2024/02/28 00:20:57;;;;;;;10.70;4.23;;;;;;;-2.36;100.00;100467.56;5018652;28;20191;-68
2024/02/28 00:23:23;;;;;;;11.00;4.70;;;;;;;-2.36;100.00;100474.53;5037389;28;20136;-68
2024/02/28 00:25:49;;;;;;;6.97;4.03;;;;;;;-2.28;100.00;100469.88;5019828;28;20080;-68
2024/02/28 00:28:15;;;;;;;8.43;4.43;;;;;;;-2.30;100.00;100464.75;5018343;28;20071;-68
2024/02/28 00:30:41;;;;;;;9.87;4.27;;;;;;;-2.28;100.00;100472.47;5017954;28;20064;-68
2024/02/28 00:33:06;;;;;;;7.47;4.20;;;;;;;-2.31;100.00;100481.25;5051122;28;20043;-68
2024/02/28 00:35:34;;;;;;;8.10;4.00;;;;;;;-2.30;100.00;100488.16;5034453;28;20487;-68
2024/02/28 00:38:01;;;;;;;10.20;4.50;;;;;;;-2.35;100.00;100484.88;5050656;28;20502;-68
2024/02/28 00:40:28;;;;;;;9.03;4.53;;;;;;;-2.44;100.00;100480.00;5070501;28;20032;-68
2024/02/28 00:42:55;;;;;;;8.97;4.17;;;;;;;-2.43;100.00;100468.69;5054517;28;20333;-68
2024/02/28 00:45:20;;;;;;;9.40;4.47;;;;;;;-2.48;100.00;100501.84;5039020;28;20070;-70
2024/02/28 00:47:46;;;;;;;11.73;4.53;;;;;;;-2.50;100.00;100502.78;5038524;28;20143;-70
2024/02/28 00:50:12;;;;;;;8.47;4.37;;;;;;;-2.53;100.00;100487.28;5038738;28;20081;-70
2024/02/28 00:52:38;;;;;;;11.50;4.73;;;;;;;-2.55;100.00;100505.56;5054324;28;20062;-69
2024/02/28 00:55:04;;;;;;;14.27;4.90;;;;;;;-2.57;100.00;100491.78;5053903;28;20044;-68
2024/02/28 00:57:31;;;;;;;9.33;4.30;;;;;;;-2.62;100.00;100504.09;5028792;28;20482;-68
2024/02/28 00:59:57;;;;;;;7.43;4.20;;;;;;;-2.67;100.00;100500.81;5017534;28;20107;-69
2024/02/28 01:02:22;;;;;;;12.13;4.50;;;;;;;-2.70;100.00;100492.25;5017520;28;20502;-69
2024/02/28 01:04:48;;;;;;;10.37;3.87;;;;;;;-2.66;100.00;100496.47;5017309;28;20049;-69
2024/02/28 01:07:16;;;;;;;10.67;5.87;;;;;;;-2.66;100.00;100492.09;5000943;28;20083;-70
2024/02/28 01:09:44;;;;;;;10.57;4.70;;;;;;;-2.68;100.00;100493.06;4993824;28;20401;-69
2024/02/28 01:12:10;;;;;;;10.77;4.60;;;;;;;-2.77;100.00;100491.66;4981553;28;20388;-70
2024/02/28 01:14:37;;;;;;;10.53;4.53;;;;;;;-2.73;100.00;100494.97;4978369;28;20124;-69
2024/02/28 01:17:03;;;;;;;7.27;3.87;;;;;;;-2.72;100.00;100484.50;4977231;28;20045;-69
2024/02/28 01:19:29;;;;;;;9.53;4.17;;;;;;;-2.65;100.00;100492.94;4976955;28;20053;-69
2024/02/28 01:21:55;;;;;;;7.40;4.00;;;;;;;-2.66;100.00;100491.25;4977148;28;20049;-69
2024/02/28 01:24:21;;;;;;;12.87;4.13;;;;;;;-2.62;100.00;100503.22;4993115;28;20069;-69
2024/02/28 01:26:48;;;;;;;7.77;4.13;;;;;;;-2.60;100.00;100497.06;4977129;28;20064;-69
2024/02/28 01:29:14;;;;;;;10.10;4.43;;;;;;;-2.58;100.00;100499.59;4978133;28;20054;-69
2024/02/28 01:31:40;;;;;;;9.57;4.40;;;;;;;-2.54;100.00;100494.28;4992957;28;20049;-70
2024/02/28 01:34:06;;;;;;;10.37;4.00;;;;;;;-2.55;100.00;100504.72;4959499;28;20038;-70
2024/02/28 01:36:31;;;;;;;9.03;4.13;;;;;;;-2.56;100.00;100498.66;4958818;28;20976;-70
2024/02/28 01:38:58;;;;;;;9.97;4.00;;;;;;;-2.48;100.00;100496.66;4959826;28;20042;-70
2024/02/28 01:41:24;;;;;;;8.73;3.77;;;;;;;-2.56;100.00;100471.81;5007201;28;20057;-70
2024/02/28 01:43:50;;;;;;;10.57;4.50;;;;;;;-2.54;100.00;100485.59;5031640;28;20037;-70
2024/02/28 01:46:25;;;;;;;8.23;4.10;;;;;;;-2.51;100.00;100469.88;5047964;28;20045;-70
2024/02/28 01:48:52;;;;;;;8.13;3.93;;;;;;;-2.54;100.00;100462.22;5015353;28;20044;-70
2024/02/28 01:51:19;;;;;;;9.53;4.60;;;;;;;-2.57;100.00;100470.13;5016846;28;20114;-70
2024/02/28 01:53:47;;;;;;;7.83;4.17;;;;;;;-2.58;100.00;100466.66;5017019;28;20037;-69
2024/02/28 01:56:16;;;;;;;9.67;4.17;;;;;;;-2.56;100.00;100461.41;5035974;28;20482;-70
2024/02/28 01:58:44;;;;;;;6.57;3.73;;;;;;;-2.59;100.00;100466.72;5032225;28;20044;-69
2024/02/28 02:01:11;;;;;;;8.20;4.50;;;;;;;-2.67;100.00;100468.75;5024806;28;20109;-69
2024/02/28 02:03:37;;;;;;;6.80;4.17;;;;;;;-2.66;100.00;100475.66;5057396;28;20040;-69
2024/02/28 02:06:03;;;;;;;11.73;4.23;;;;;;;-2.64;100.00;100466.03;5057175;28;20190;-69
2024/02/28 02:08:30;;;;;;;11.03;4.47;;;;;;;-2.65;100.00;100447.00;5040021;28;20193;-69
2024/02/28 02:10:56;;;;;;;8.93;4.07;;;;;;;-2.65;100.00;100473.00;5039918;28;20542;-69
2024/02/28 02:13:22;;;;;;;10.97;3.97;;;;;;;-2.64;100.00;100458.22;5023917;28;20056;-70
2024/02/28 02:15:50;;;;;;;10.00;3.90;;;;;;;-2.65;100.00;100478.19;5004539;28;20044;-70
2024/02/28 02:18:15;;;;;;;7.70;3.80;;;;;;;-2.64;100.00;100471.22;4994103;28;20050;-69
2024/02/28 02:20:48;;;;;;;6.07;3.70;;;;;;;-2.53;100.00;100463.88;4929626;28;20432;-69
2024/02/28 02:23:15;;;;;;;8.63;3.87;;;;;;;-2.63;100.00;100472.94;4962505;28;20054;-69
2024/02/28 02:25:47;;;;;;;6.13;3.83;;;;;;;-2.60;100.00;100476.25;4945991;28;20057;-69
2024/02/28 02:28:13;;;;;;;8.63;4.37;;;;;;;-2.69;100.00;100475.78;4961648;28;20451;-69
2024/02/28 02:30:39;;;;;;;9.50;4.33;;;;;;;-2.73;100.00;100480.22;4961759;28;20053;-69
2024/02/28 02:33:06;;;;;;;9.40;4.30;;;;;;;-2.71;100.00;100464.56;4929986;28;20050;-70
2024/02/28 02:35:34;;;;;;;10.87;4.97;;;;;;;-2.70;100.00;100461.91;4961357;28;20112;-69
2024/02/28 02:38:00;;;;;;;8.60;3.57;;;;;;;-2.75;100.00;100450.81;4961118;28;20054;-70
2024/02/28 02:40:26;;;;;;;7.53;3.80;;;;;;;-2.73;100.00;100461.16;4946037;28;20067;-75
2024/02/28 02:42:52;;;;;;;9.27;4.50;;;;;;;-2.77;100.00;100465.66;4930388;28;20062;-75
2024/02/28 02:45:18;;;;;;;9.63;3.83;;;;;;;-2.76;100.00;100449.13;4946607;28;20081;-71
2024/02/28 02:47:44;;;;;;;8.07;3.80;;;;;;;-2.71;100.00;100467.16;4963224;28;20050;-76
2024/02/28 02:50:10;;;;;;;11.60;3.90;;;;;;;-2.69;100.00;100457.56;4983202;28;20064;-76
2024/02/28 02:52:36;;;;;;;11.93;4.27;;;;;;;-2.70;100.00;100445.47;4962640;28;20053;-77
2024/02/28 02:55:03;;;;;;;10.00;3.90;;;;;;;-2.66;100.00;100454.88;4992859;28;20129;-76
2024/02/28 02:57:31;;;;;;;12.97;4.00;;;;;;;-2.57;100.00;100441.50;4960590;28;20065;-74
2024/02/28 02:59:59;;;;;;;9.23;3.83;;;;;;;-2.63;100.00;100458.16;4948935;28;20512;-74
2024/02/28 03:02:26;;;;;;;9.63;4.10;;;;;;;-2.59;100.00;100446.78;4946598;28;20050;-74
2024/02/28 03:04:52;;;;;;;6.80;3.90;;;;;;;-2.60;100.00;100465.03;4936864;28;20489;-74
2024/02/28 03:07:19;;;;;;;7.90;4.17;;;;;;;-2.56;100.00;100435.41;4950740;28;20058;-74
2024/02/28 03:09:45;;;;;;;8.77;4.00;;;;;;;-2.62;100.00;100451.22;4959543;28;20095;-76
2024/02/28 03:12:12;;;;;;;7.40;4.27;;;;;;;-2.68;100.00;100436.72;4941320;28;20059;-75
2024/02/28 03:14:38;;;;;;;14.07;4.00;;;;;;;-2.64;100.00;100445.22;4941295;28;20050;-75
2024/02/28 03:17:04;;;;;;;10.33;3.93;;;;;;;-2.63;100.00;100441.75;4909566;28;20053;-75
2024/02/28 03:19:30;;;;;;;7.63;4.03;;;;;;;-2.64;100.00;100442.63;4950985;29;20051;-75
2024/02/28 03:21:56;;;;;;;12.40;3.63;;;;;;;-2.63;100.00;100449.53;4915510;29;20104;-74
2024/02/28 03:24:22;;;;;;;8.47;3.80;;;;;;;-2.63;100.00;100478.16;4934130;29;20493;-73
2024/02/28 03:26:48;;;;;;;10.20;4.20;;;;;;;-2.62;100.00;100443.44;4921801;29;20049;-73
2024/02/28 03:29:14;;;;;;;7.30;3.93;;;;;;;-2.60;100.00;100436.44;4937596;29;20475;-73
2024/02/28 03:31:40;;;;;;;6.10;3.20;;;;;;;-2.58;100.00;100466.66;4937223;29;20070;-73
2024/02/28 03:34:05;;;;;;;6.17;3.63;;;;;;;-2.57;100.00;100470.13;4937080;29;20059;-73
2024/02/28 03:36:32;;;;;;;7.90;3.90;;;;;;;-2.53;100.00;100461.28;4937244;29;20150;-72
2024/02/28 03:38:58;;;;;;;7.17;3.63;;;;;;;-2.51;100.00;100438.69;4937344;29;20149;-73
2024/02/28 03:41:25;;;;;;;9.07;3.33;;;;;;;-2.45;100.00;100454.91;4936524;28;20150;-73
2024/02/28 03:43:51;;;;;;;8.47;4.13;;;;;;;-2.47;100.00;100454.13;4940840;28;20501;-72
2024/02/28 03:46:17;;;;;;;7.97;3.80;;;;;;;-2.42;100.00;100431.41;4940810;28;20050;-73
2024/02/28 03:48:43;;;;;;;11.07;3.87;;;;;;;-2.31;100.00;100444.84;4956211;28;20070;-74
2024/02/28 03:51:09;;;;;;;9.73;4.10;;;;;;;-2.45;100.00;100439.31;4996649;28;20175;-74
2024/02/28 03:53:35;;;;;;;9.70;3.77;;;;;;;-2.45;100.00;100451.47;4986898;28;20071;-74
2024/02/28 03:56:02;;;;;;;7.53;3.87;;;;;;;-2.42;100.00;100446.13;4979667;28;20088;-73
2024/02/28 03:58:30;;;;;;;6.80;3.53;;;;;;;-2.43;100.00;100452.25;4979273;28;20084;-74
2024/02/28 04:00:56;;;;;;;7.43;3.50;;;;;;;-2.42;100.00;100431.41;4963003;28;20058;-66
2024/02/28 04:03:22;;;;;;;8.07;3.70;;;;;;;-2.45;100.00;100434.13;4962419;28;20048;-66
2024/02/28 04:05:49;;;;;;;5.87;3.40;;;;;;;-2.39;100.00;100438.22;4994811;28;20057;-66
2024/02/28 04:08:16;;;;;;;6.90;3.40;;;;;;;-2.43;100.00;100424.47;4972540;28;20054;-66
2024/02/28 04:10:42;;;;;;;6.20;3.40;;;;;;;-2.41;100.00;100435.69;4940002;28;20057;-65
2024/02/28 04:13:08;;;;;;;5.63;3.50;;;;;;;-2.45;100.00;100436.72;4955615;28;20069;-66
2024/02/28 04:15:34;;;;;;;9.63;3.77;;;;;;;-2.44;100.00;100445.34;4939819;28;20062;-65
2024/02/28 04:18:01;;;;;;;7.83;3.33;;;;;;;-2.56;100.00;100436.25;4939337;28;20115;-66
2024/02/28 04:20:32;;;;;;;6.20;3.30;;;;;;;-2.49;100.00;100434.28;4929962;28;20054;-66
2024/02/28 04:23:00;;;;;;;10.55;3.50;;;;;;;-2.48;100.00;100442.03;4905473;29;20062;-66
2024/02/28 04:25:27;;;;;;;6.80;3.57;;;;;;;-2.53;100.00;100435.28;4920200;29;20043;-65
2024/02/28 04:27:56;;;;;;;10.83;3.83;;;;;;;-2.49;100.00;100442.09;4953995;28;20050;-67
2024/02/28 04:30:22;;;;;;;6.60;3.60;;;;;;;-2.55;100.00;100443.16;4942700;28;20050;-66
2024/02/28 04:32:49;;;;;;;7.13;4.00;;;;;;;-2.49;100.00;100439.47;4958422;28;20571;-65
2024/02/28 04:35:18;;;;;;;9.23;3.80;;;;;;;-2.47;100.00;100450.66;4958530;28;20146;-65
2024/02/28 04:37:47;;;;;;;6.17;3.50;;;;;;;-2.42;100.00;100441.78;4961473;28;20046;-70
2024/02/28 04:40:13;;;;;;;11.20;3.70;;;;;;;-2.35;100.00;100456.25;4992939;28;20046;-69
2024/02/28 04:42:39;;;;;;;5.97;3.30;;;;;;;-2.38;100.00;100456.38;5013191;28;20072;-71
2024/02/28 04:45:05;;;;;;;5.73;3.20;;;;;;;-2.43;100.00;100439.25;5013880;28;20045;-72
2024/02/28 04:47:31;;;;;;;8.00;3.70;;;;;;;-2.38;100.00;100451.16;4995056;28;20038;-70
2024/02/28 04:49:57;;;;;;;6.53;3.47;;;;;;;-2.36;100.00;100445.91;5038019;28;20053;-79
2024/02/28 04:52:24;;;;;;;7.87;3.27;;;;;;;-2.34;100.00;100467.50;5049092;28;20063;-69
2024/02/28 04:54:53;;;;;;;7.30;3.43;;;;;;;-2.35;100.00;100448.44;5016983;28;20052;-73
2024/02/28 04:57:19;;;;;;;6.10;3.10;;;;;;;-2.31;100.00;100477.81;5053500;28;20102;-79
2024/02/28 04:59:46;;;;;;;7.67;3.60;;;;;;;-2.29;100.00;100447.38;5001876;28;20165;-77
2024/02/28 05:02:12;;;;;;;9.37;3.57;;;;;;;-2.28;100.00;100472.47;5033872;28;20091;-77
2024/02/28 05:04:38;;;;;;;6.30;3.17;;;;;;;-2.25;100.00;100457.63;5000445;28;20076;-80
2024/02/28 05:07:04;;;;;;;7.87;3.57;;;;;;;-2.21;100.00;100453.97;5034708;28;20047;-78
2024/02/28 05:09:30;;;;;;;8.03;3.30;;;;;;;-2.21;100.00;100474.78;5016929;28;20475;-73
2024/02/28 05:11:55;;;;;;;7.13;3.30;;;;;;;-2.21;100.00;100458.31;5026789;28;20084;-74
2024/02/28 05:14:21;;;;;;;9.97;3.13;;;;;;;-2.17;100.00;100455.53;5046394;28;20063;-77
2024/02/28 05:16:47;;;;;;;10.37;3.60;;;;;;;-2.08;100.00;100464.75;5035238;28;20053;-75
2024/02/28 05:19:13;;;;;;;5.53;3.30;;;;;;;-2.08;100.00;100467.38;5049050;28;20049;-78
2024/02/28 05:21:42;;;;;;;6.67;3.30;;;;;;;-2.00;100.00;100466.16;5066322;28;20056;-74
2024/02/28 05:24:08;;;;;;;6.97;2.87;;;;;;;-2.03;100.00;100457.63;5058177;28;20043;-72
2024/02/28 05:26:35;;;;;;;6.40;3.43;;;;;;;-1.98;100.00;100466.94;5031328;28;20549;-73
2024/02/28 05:29:01;;;;;;;8.27;3.17;;;;;;;-2.04;100.00;100454.19;5048897;28;20459;-73
2024/02/28 05:31:28;;;;;;;6.90;3.60;;;;;;;-2.05;100.00;100456.84;5030750;28;20106;-74
2024/02/28 05:33:56;;;;;;;8.57;3.37;;;;;;;-1.95;100.00;100460.75;5048203;28;20037;-67
2024/02/28 05:36:23;;;;;;;10.87;3.47;;;;;;;-1.95;100.00;100461.63;5048731;28;20060;-72
2024/02/28 05:38:50;;;;;;;8.40;3.80;;;;;;;-1.89;100.00;100447.50;5032619;28;20052;-75
2024/02/28 05:41:17;;;;;;;10.37;3.67;;;;;;;-1.82;100.00;100475.88;5032979;28;20102;-75
2024/02/28 05:43:43;;;;;;;9.70;3.50;;;;;;;-1.80;100.00;100457.59;5065782;28;20052;-75
2024/02/28 05:46:09;;;;;;;5.13;3.47;;;;;;;-1.79;100.00;100451.44;5049294;28;20486;-73
2024/02/28 05:48:35;;;;;;;8.50;3.40;;;;;;;-1.74;100.00;100457.34;5065638;28;20036;-75
2024/02/28 05:51:01;;;;;;;9.03;3.57;;;;;;;-1.62;100.00;100479.41;5039765;28;20056;-79
2024/02/28 05:53:27;;;;;;;6.77;3.60;;;;;;;-1.59;100.00;100458.44;5053248;28;20048;-81
2024/02/28 05:55:55;;;;;;;6.17;3.30;;;;;;;-1.55;100.00;100453.06;5049881;28;20076;-79
2024/02/28 05:58:21;;;;;;;9.10;3.77;;;;;;;-1.48;100.00;100464.06;5033434;28;20045;-75
2024/02/28 06:00:47;;;;;;;7.73;3.67;;;;;;;-1.41;100.00;100482.00;5000864;28;20854;-73
2024/02/28 06:03:13;;;;;;;11.07;3.80;;;;;;;-1.32;100.00;100473.78;5016154;28;20144;-78
2024/02/28 06:05:39;;;;;;;8.90;3.90;;;;;;;-1.31;100.00;100477.25;5049546;28;20037;-79
2024/02/28 06:08:05;;;;;;;8.37;3.87;;;;;;;-1.21;100.00;100482.00;5016000;28;20049;-76
2024/02/28 06:10:31;;;;;;;9.13;3.60;;;;;;;-1.14;100.00;100467.84;5032301;28;20052;-79
2024/02/28 06:12:57;;;;;;;6.87;3.63;;;;;;;-1.14;100.00;100474.78;5052671;28;20052;-76
2024/02/28 06:15:24;;;;;;;10.47;4.00;;;;;;;-1.06;100.00;100472.72;5024590;28;20400;-77
2024/02/28 06:17:51;;;;;;;8.80;3.83;;;;;;;-0.98;100.00;100478.44;4989045;28;20065;-74
2024/02/28 06:20:17;;;;;;;8.73;4.20;;;;;;;-0.87;100.00;100474.47;5033169;28;20049;-74
2024/02/28 06:22:43;;;;;;;9.50;3.77;;;;;;;-0.80;100.00;100485.47;5065068;28;20067;-77
2024/02/28 06:25:18;;;;;;;10.13;3.97;;;;;;;-0.73;100.00;100485.16;5016243;28;20084;-77
2024/02/28 06:27:45;;;;;;;8.30;4.13;;;;;;;-0.58;100.00;100487.06;5048898;28;20040;-76
2024/02/28 06:30:16;;;;;;;10.80;4.40;;;;;;;-0.43;100.00;100478.56;5032620;28;20048;-77
2024/02/28 06:32:42;;;;;;;6.65;3.70;;;;;;;-0.28;100.00;100474.41;5049933;28;20145;-76
2024/02/28 06:35:09;;;;;;;10.63;4.13;;;;;;;-0.14;100.00;100491.13;5033164;28;20060;-75
2024/02/28 06:37:36;;;;;;;10.90;4.20;;;;;;;-0.12;100.00;100480.63;5048932;28;20352;-77
2024/02/28 06:40:05;;;;;;;14.90;4.90;;;;;;;0.03;100.00;100480.75;5032365;28;20045;-74
2024/02/28 06:42:31;;;;;;;8.83;4.07;;;;;;;0.10;100.00;100485.69;5034616;28;20106;-75
2024/02/28 06:44:57;;;;;;;8.30;3.57;;;;;;;0.19;100.00;100475.66;5055491;28;20483;-77
2024/02/28 06:47:23;;;;;;;11.83;4.80;;;;;;;0.32;100.00;100488.97;5061103;28;20171;-73
2024/02/28 06:49:49;;;;;;;12.50;4.97;;;;;;;0.43;100.00;100484.09;5039991;28;20059;-76
2024/02/28 06:52:15;;;;;;;11.63;4.63;;;;;;;0.58;100.00;100486.81;5043318;28;20052;-79
2024/02/28 06:54:41;;;;;;;8.33;4.20;;;;;;;0.65;100.00;100487.34;5041942;28;20049;-78
2024/02/28 06:57:06;;;;;;;10.73;3.93;;;;;;;0.84;100.00;100472.44;5037046;28;20057;-80
2024/02/28 06:59:33;;;;;;;9.47;4.13;;;;;;;0.99;100.00;100484.75;5025900;28;20041;-75
2024/02/28 07:01:59;;;;;;;10.93;4.40;;;;;;;1.03;100.00;100486.28;5030730;28;20099;-78
2024/02/28 07:04:25;;;;;;;10.37;3.50;;;;;;;1.15;100.00;100488.28;5053317;28;20049;-79
2024/02/28 07:06:50;;;;;;;10.47;3.90;;;;;;;1.38;100.00;100498.41;5052303;28;20037;-81
2024/02/28 07:09:16;;;;;;;8.33;4.57;;;;;;;1.53;100.00;100495.84;5019908;28;20128;-81
2024/02/28 07:11:42;;;;;;;10.90;4.20;;;;;;;1.71;100.00;100483.53;5003156;28;20037;-77
2024/02/28 07:14:08;;;;;;;8.67;4.03;;;;;;;1.88;100.00;100488.72;5035836;28;20137;-76
2024/02/28 07:16:34;;;;;;;10.00;4.20;;;;;;;2.07;100.00;100481.56;5053414;28;20383;-76
2024/02/28 07:19:01;;;;;;;9.43;4.40;;;;;;;2.26;100.00;100508.41;5060427;28;20060;-76
2024/02/28 07:21:27;;;;;;;13.20;5.00;;;;;;;2.51;100.00;100493.00;5066626;28;20105;-68
2024/02/28 07:23:54;;;;;;;10.67;4.70;;;;;;;2.93;100.00;100505.44;5062388;28;20068;-73
2024/02/28 07:26:20;;;;;;;8.20;5.30;;;;;;;4.23;100.00;100493.88;5039604;28;20079;-76
2024/02/28 07:28:49;;;;;;;8.40;5.23;;;;;;;6.33;89.94;100502.25;5021454;28;20125;-74
2024/02/28 07:31:16;;;;;;;9.10;5.53;;;;;;;8.09;73.07;100509.00;5020995;28;20036;-76
2024/02/28 07:33:45;;;;;;;17.27;5.68;;;;;;;9.74;62.25;100492.50;5071969;28;20047;-75
2024/02/28 07:36:12;;;;;;;10.18;4.80;;;;;;;11.11;53.04;100489.91;5072151;28;20102;-72
2024/02/28 07:38:38;;;;;;;8.00;4.32;;;;;;;12.09;46.47;100502.72;5072062;28;20048;-76
2024/02/28 07:41:04;;;;;;;8.68;4.47;;;;;;;12.72;42.35;100499.16;5071224;28;20051;-75
2024/02/28 07:43:37;;;;;;;11.05;4.90;;;;;;;13.16;39.79;100506.25;5071547;28;20106;-74
2024/02/28 07:46:09;;;;;;;6.07;4.07;;;;;;;13.53;38.44;100496.22;5056522;28;20033;-76
2024/02/28 07:48:35;;;;;;;6.73;4.30;;;;;;;13.98;37.26;100479.13;5034586;28;20037;-75
2024/02/28 07:51:02;;;;;;;9.05;4.45;;;;;;;14.72;34.98;100490.81;5051337;28;20280;-75
2024/02/28 07:53:29;;;;;;;12.98;4.70;;;;;;;15.23;33.72;100501.25;5033802;28;20048;-71
2024/02/28 07:55:56;;;;;;;6.80;4.50;;;;;;;15.57;32.37;100491.25;5034726;28;20048;-75
2024/02/28 07:58:24;;;;;;;11.07;5.13;;;;;;;15.42;31.49;100497.44;5034438;28;20120;-74
2024/02/28 08:00:52;;;;;;;9.45;5.22;;;;;;;15.76;31.71;100485.50;5034572;28;20110;-73
2024/02/28 08:03:18;;;;;;;12.45;4.55;;;;;;;15.79;30.85;100479.00;5051423;28;20913;-73
2024/02/28 08:05:44;;;;;;;9.27;5.18;;;;;;;15.74;30.86;100474.16;5051177;28;20365;-76
2024/02/28 08:08:10;;;;;;;13.23;5.60;;;;;;;16.06;30.88;100471.38;5063625;28;20522;-76
2024/02/28 08:10:37;;;;;;;10.00;4.63;;;;;;;16.30;29.37;100482.00;5054000;28;20040;-75
2024/02/28 08:13:07;;;;;;;10.55;5.20;;;;;;;16.34;29.67;100483.34;5069834;28;20068;-76
2024/02/28 08:15:33;;;;;;;10.77;5.00;;;;;;;15.96;29.69;100468.03;5054109;28;20055;-75
2024/02/28 08:18:00;;;;;;;7.00;4.50;;;;;;;16.45;29.40;100472.22;5070827;28;20033;-78
2024/02/28 08:20:26;;;;;;;5.95;4.20;;;;;;;16.55;28.58;100477.38;5053630;28;20390;-77
2024/02/28 08:22:57;;;;;;;9.95;5.00;;;;;;;16.47;28.60;100477.41;5053610;28;20036;-74
2024/02/28 08:25:23;;;;;;;8.07;5.03;;;;;;;16.74;28.16;100471.56;5071696;28;20479;-73
2024/02/28 08:27:49;;;;;;;15.82;6.03;;;;;;;16.91;28.37;100477.66;5037524;28;20105;-77
2024/02/28 08:30:16;;;;;;;7.25;5.03;;;;;;;16.44;27.96;100478.63;5038248;28;20098;-75
2024/02/28 08:32:41;;;;;;;6.65;4.72;;;;;;;16.51;28.29;100471.53;5070544;28;20427;-77
2024/02/28 08:35:10;;;;;;;9.13;4.95;;;;;;;17.10;27.67;100485.25;5046425;28;20040;-74
2024/02/28 08:37:39;;;;;;;14.60;5.85;;;;;;;16.95;27.61;100478.97;5071276;28;20138;-77
2024/02/28 08:40:05;;;;;;;8.27;5.22;;;;;;;16.70;27.74;100471.09;5071012;28;20059;-78
2024/02/28 08:42:31;;;;;;;8.93;5.18;;;;;;;16.78;28.12;100473.72;5095963;28;20059;-73
2024/02/28 08:44:57;;;;;;;12.68;5.57;;;;;;;16.79;27.51;100478.06;5073062;28;20036;-82
2024/02/28 08:47:27;;;;;;;8.18;4.75;;;;;;;17.02;27.47;100488.00;5053708;28;20040;-81
2024/02/28 08:49:53;;;;;;;9.70;5.18;;;;;;;16.09;27.66;100473.72;5053273;28;20118;-78
2024/02/28 08:52:20;;;;;;;7.78;4.65;;;;;;;15.46;28.34;100459.47;5069800;28;20161;-73
2024/02/28 08:54:46;;;;;;;9.88;5.68;;;;;;;15.37;28.72;100460.44;5053229;28;20036;-78
2024/02/28 08:57:12;;;;;;;9.90;5.10;;;;;;;15.16;29.33;100460.94;5069755;28;20370;-74
2024/02/28 08:59:38;;;;;;;11.18;5.85;;;;;;;15.17;29.39;100462.63;5020618;28;20041;-76
2024/02/28 09:02:03;;;;;;;7.82;5.65;;;;;;;15.22;29.63;100462.94;5036934;28;20044;-78
2024/02/28 09:04:29;;;;;;;9.77;5.22;;;;;;;15.67;29.01;100458.94;5070244;28;20105;-75
2024/02/28 09:06:55;;;;;;;9.75;5.28;;;;;;;16.40;28.75;100442.41;5054461;28;20499;-77
2024/02/28 09:09:21;;;;;;;10.40;5.05;;;;;;;16.97;28.19;100448.28;5055799;28;20074;-76
2024/02/28 09:11:47;;;;;;;12.10;5.10;;;;;;;17.32;27.42;100428.84;5053254;28;20040;-79
2024/02/28 09:14:13;;;;;;;8.57;5.10;;;;;;;17.65;26.53;100429.41;5020251;28;20121;-78
2024/02/28 09:16:39;;;;;;;8.57;5.10;;;;;;;17.29;27.16;100458.75;5053116;28;20060;-78
2024/02/28 09:19:05;;;;;;;12.10;4.95;;;;;;;16.66;27.39;100429.56;5070078;28;20044;-77
2024/02/28 09:21:31;;;;;;;15.35;5.68;;;;;;;16.46;28.03;100449.78;5034687;28;20044;-74
2024/02/28 09:23:57;;;;;;;10.65;5.70;;;;;;;15.75;28.56;100451.69;5059590;28;20041;-77
2024/02/28 09:26:23;;;;;;;8.77;5.28;;;;;;;15.96;28.64;100429.72;5066612;28;20459;-77
2024/02/28 09:28:49;;;;;;;12.45;5.45;;;;;;;15.61;28.69;100433.66;5032816;28;20045;-75
2024/02/28 09:31:17;;;;;;;11.02;5.78;;;;;;;15.63;29.19;100447.72;5049702;28;20048;-76
2024/02/28 09:33:46;;;;;;;13.05;5.50;;;;;;;16.10;28.95;100426.28;5065629;28;20041;-76
2024/02/28 09:36:12;;;;;;;10.32;5.78;;;;;;;15.98;28.77;100431.19;5033655;28;20041;-73
2024/02/28 09:38:38;;;;;;;9.55;5.40;;;;;;;15.80;29.18;100430.59;5049810;28;20115;-77
2024/02/28 09:41:04;;;;;;;10.30;5.53;;;;;;;15.04;29.36;100413.28;5050035;28;20531;-77
2024/02/28 09:43:36;;;;;;;12.60;5.97;;;;;;;14.78;29.97;100423.31;5049492;28;20369;-71
2024/02/28 09:46:06;;;;;;;11.90;6.72;;;;;;;14.54;30.97;100410.75;5049386;28;20044;-75
2024/02/28 09:48:32;;;;;;;8.37;5.67;;;;;;;14.00;31.56;100443.28;5032727;28;20497;-74
2024/02/28 09:50:58;;;;;;;11.10;5.53;;;;;;;14.15;31.71;100416.78;5059943;28;20112;-72
2024/02/28 09:53:24;;;;;;;11.05;6.05;;;;;;;14.01;31.88;100412.06;5049992;28;20098;-74
2024/02/28 09:55:50;;;;;;;11.65;6.30;;;;;;;14.11;31.92;100420.78;5032380;28;20059;-73
2024/02/28 09:58:17;;;;;;;10.38;5.50;;;;;;;13.86;32.28;100427.00;5034179;28;20048;-76
2024/02/28 10:00:44;;;;;;;11.63;5.80;;;;;;;13.24;33.09;100431.66;5032720;28;20403;-75
2024/02/28 10:03:19;;;;;;;9.43;5.80;;;;;;;12.34;34.38;100414.16;5049873;28;20114;-74
2024/02/28 10:05:48;;;;;;;13.35;5.63;;;;;;;11.72;35.49;100422.03;5054862;28;20098;-76
2024/02/28 10:08:15;;;;;;;18.15;6.18;;;;;;;11.22;37.00;100420.63;5052892;28;20127;-75
2024/02/28 10:10:47;;;;;;;14.23;5.90;;;;;;;10.98;38.13;100436.19;5069214;28;20037;-75
2024/02/28 10:13:15;;;;;;;11.30;5.57;;;;;;;10.94;38.22;100421.50;5051473;28;20053;-71
2024/02/28 10:15:41;;;;;;;10.50;5.65;;;;;;;10.47;39.28;100435.63;5068869;28;20378;-74
2024/02/28 10:18:07;;;;;;;11.23;5.35;;;;;;;9.91;40.56;100406.97;5071725;28;20036;-75
2024/02/28 10:20:33;;;;;;;16.20;5.95;;;;;;;10.10;41.59;100443.38;5054519;28;20040;-73
2024/02/28 10:22:59;;;;;;;12.10;5.43;;;;;;;10.82;40.83;100433.25;5056737;28;20477;-75
2024/02/28 10:25:26;;;;;;;10.82;5.95;;;;;;;11.05;40.01;100435.50;5056777;28;20040;-74
2024/02/28 10:27:52;;;;;;;14.70;5.72;;;;;;;11.18;39.99;100411.22;5073006;28;20632;-74
2024/02/28 10:30:19;;;;;;;16.75;5.03;;;;;;;10.82;40.20;100422.63;5039857;28;20059;-73
2024/02/28 10:32:49;;;;;;;10.93;5.72;;;;;;;10.64;41.00;100427.78;5054118;28;20097;-75
2024/02/28 10:35:19;;;;;;;15.68;5.68;;;;;;;10.27;41.29;100418.81;5089651;28;20127;-75
2024/02/28 10:37:46;;;;;;;11.25;5.22;;;;;;;10.12;42.54;100421.00;5072765;28;20059;-74
2024/02/28 10:40:13;;;;;;;10.48;5.25;;;;;;;9.88;42.94;100401.06;5089323;28;20072;-74
2024/02/28 10:42:42;;;;;;;14.43;5.40;;;;;;;9.53;44.13;100425.34;5055331;28;20059;-74
2024/02/28 10:45:10;;;;;;;12.48;5.53;;;;;;;9.24;45.12;100400.50;5072584;28;20044;-74
2024/02/28 10:47:39;;;;;;;10.48;5.15;;;;;;;8.84;46.82;100404.03;5072421;28;20040;-72
2024/02/28 10:50:18;;;;;;;9.40;4.55;;;;;;;8.42;48.40;100416.34;5075979;28;20047;-76
2024/02/28 10:52:46;;;;;;;15.38;5.00;;;;;;;7.99;50.76;100421.59;4998668;28;20528;-71
2024/02/28 10:55:13;;;;;;;11.05;5.13;;;;;;;7.68;53.04;100397.72;4979303;28;20058;-74
2024/02/28 10:57:39;;;;;;;12.43;5.05;;;;;;;7.51;56.10;100392.91;4978286;28;20065;-75
2024/02/28 11:00:06;;;;;;;14.50;5.43;;;;;;;7.23;58.97;100404.78;4998617;28;20423;-72
2024/02/28 11:02:32;;;;;;;15.10;5.38;;;;;;;7.02;61.43;100414.34;4997938;28;20372;-68
2024/02/28 11:05:01;;;;;;;11.32;4.95;;;;;;;6.80;64.79;100391.38;4998527;28;20053;-71
2024/02/28 11:07:27;;;;;;;6.68;4.72;;;;;;;6.68;67.09;100404.66;5015488;28;20050;-73
2024/02/28 11:09:55;;;;;;;9.98;5.30;;;;;;;6.57;68.29;100379.06;4998351;28;20049;-73
2024/02/28 11:12:28;;;;;;;14.68;5.78;;;;;;;6.47;69.93;100409.72;5017838;28;20041;-80
2024/02/28 11:15:01;;;;;;;10.20;5.72;;;;;;;6.59;70.32;100389.50;4991430;28;20042;-80